Time;durP1;ratioP1;P1;durP2;ratioP2;P2;SDS_P1;SDS_P2;PMS_P1;PMS_P2;Temp;Humidity;BMP_temperature;BMP_pressure;BME280_temperature;BME280_humidity;BME280_pressure;Samples;Min_cycle;Max_cycle;Signal;HPM_P1;HPM_P2
2023/07/28 00:02:07;;;;;;;5.25;2.65;;;12.80;99.90;;;;;;5036437;28;20076;-84
2023/07/28 00:04:35;;;;;;;3.55;2.38;;;12.70;99.90;;;;;;5036388;28;20049;-84
2023/07/28 00:07:00;;;;;;;4.20;2.30;;;12.70;99.90;;;;;;5019754;28;20120;-84
2023/07/28 00:09:26;;;;;;;3.53;2.38;;;12.70;99.90;;;;;;5004911;28;20526;-84
2023/07/28 00:11:52;;;;;;;6.95;3.63;;;12.70;99.90;;;;;;5020552;28;20060;-85
2023/07/28 00:14:17;;;;;;;7.35;3.85;;;12.70;99.90;;;;;;5019847;28;20073;-84
2023/07/28 00:16:43;;;;;;;5.88;3.50;;;12.60;99.90;;;;;;5019949;28;20041;-84
2023/07/28 00:19:09;;;;;;;6.78;3.92;;;12.60;99.90;;;;;;5036108;28;20025;-84
2023/07/28 00:21:34;;;;;;;7.82;4.18;;;12.60;99.90;;;;;;5037592;28;20029;-84
2023/07/28 00:24:00;;;;;;;7.32;3.50;;;12.60;99.90;;;;;;5019928;28;20032;-84
2023/07/28 00:26:26;;;;;;;5.10;2.70;;;12.60;99.90;;;;;;5036193;28;20064;-84
2023/07/28 00:28:51;;;;;;;4.32;2.63;;;12.60;99.90;;;;;;5019028;28;20034;-84
2023/07/28 00:31:17;;;;;;;5.22;2.88;;;12.70;99.90;;;;;;5019764;28;20159;-84
2023/07/28 00:33:43;;;;;;;4.05;2.65;;;12.70;99.90;;;;;;5036147;28;20367;-84
2023/07/28 00:36:08;;;;;;;4.60;2.65;;;12.70;99.90;;;;;;5021719;28;20423;-85
2023/07/28 00:38:34;;;;;;;6.60;3.10;;;12.60;99.90;;;;;;5034248;28;20032;-84
2023/07/28 00:40:59;;;;;;;6.60;3.25;;;12.60;99.90;;;;;;5035824;28;20026;-84
2023/07/28 00:43:25;;;;;;;6.22;2.72;;;12.60;99.90;;;;;;5025150;28;20030;-84
2023/07/28 00:45:51;;;;;;;5.75;2.88;;;12.60;99.90;;;;;;5028158;28;20030;-84
2023/07/28 00:48:17;;;;;;;3.78;2.38;;;12.50;99.90;;;;;;5023707;28;20030;-84
2023/07/28 00:50:48;;;;;;;4.22;2.80;;;12.40;99.90;;;;;;5015178;28;20398;-84
2023/07/28 00:53:14;;;;;;;6.32;2.60;;;12.40;99.90;;;;;;5015945;28;20032;-84
2023/07/28 00:55:41;;;;;;;4.40;2.15;;;12.40;99.90;;;;;;5019604;28;20084;-84
2023/07/28 00:58:08;;;;;;;3.47;2.03;;;12.40;99.90;;;;;;5027509;28;20438;-84
2023/07/28 01:00:34;;;;;;;4.10;2.45;;;12.40;99.90;;;;;;5012362;28;20097;-84
2023/07/28 01:03:00;;;;;;;5.53;2.50;;;12.30;99.90;;;;;;5027366;28;20040;-84
2023/07/28 01:05:41;;;;;;;3.45;2.10;;;12.40;99.90;;;;;;4997010;28;20446;-84
2023/07/28 01:08:16;;;;;;;3.95;2.30;;;12.30;99.90;;;;;;5026725;28;20049;-85
2023/07/28 01:10:42;;;;;;;3.75;2.10;;;12.30;99.90;;;;;;5027154;28;20491;-84
2023/07/28 01:13:08;;;;;;;3.38;2.08;;;12.30;99.90;;;;;;5016826;28;20045;-84
2023/07/28 01:15:34;;;;;;;4.53;2.40;;;12.20;99.90;;;;;;5016507;28;20056;-84
2023/07/28 01:17:59;;;;;;;4.28;2.22;;;12.00;99.90;;;;;;5035291;28;20030;-84
2023/07/28 01:20:31;;;;;;;5.05;2.42;;;11.90;99.90;;;;;;5023893;28;20025;-84
2023/07/28 01:23:09;;;;;;;4.97;2.10;;;11.80;99.90;;;;;;5033088;28;20487;-85
2023/07/28 01:25:57;;;;;;;3.30;2.05;;;11.70;99.90;;;;;;5025409;28;20028;-84
2023/07/28 01:28:23;;;;;;;3.67;1.98;;;11.60;99.90;;;;;;5028302;28;20554;-84
2023/07/28 01:30:49;;;;;;;3.45;1.95;;;11.60;99.90;;;;;;5031369;28;20380;-84
2023/07/28 01:33:15;;;;;;;3.78;1.90;;;11.70;99.90;;;;;;5001706;28;20080;-85
2023/07/28 01:35:40;;;;;;;3.35;2.05;;;11.70;99.90;;;;;;5035959;28;20025;-84
2023/07/28 01:38:06;;;;;;;4.20;2.50;;;11.70;99.90;;;;;;5028143;28;20104;-84
2023/07/28 01:40:32;;;;;;;4.45;2.58;;;11.70;99.90;;;;;;5016622;28;20129;-85
2023/07/28 01:42:58;;;;;;;4.15;2.28;;;11.80;99.90;;;;;;5031127;28;20116;-85
2023/07/28 01:45:24;;;;;;;3.60;1.98;;;11.70;99.90;;;;;;5024227;28;20037;-84
2023/07/28 01:47:49;;;;;;;3.05;2.03;;;11.70;99.90;;;;;;5030862;28;20068;-85
2023/07/28 01:50:15;;;;;;;3.53;2.13;;;11.70;99.90;;;;;;5016430;28;20037;-85
2023/07/28 01:52:41;;;;;;;3.63;2.00;;;11.70;99.90;;;;;;5014757;28;20042;-84
2023/07/28 01:55:07;;;;;;;3.78;2.20;;;11.70;99.90;;;;;;5012833;28;20037;-84
2023/07/28 01:57:33;;;;;;;3.78;2.10;;;11.70;99.90;;;;;;4999537;28;20031;-84
2023/07/28 01:59:59;;;;;;;3.75;2.22;;;11.70;99.90;;;;;;5025147;28;20022;-84
2023/07/28 02:02:25;;;;;;;4.55;2.00;;;11.60;99.90;;;;;;5028012;28;20044;-84
2023/07/28 02:04:50;;;;;;;3.60;2.00;;;11.70;99.90;;;;;;5047030;28;20045;-85
2023/07/28 02:07:16;;;;;;;6.35;2.40;;;11.70;99.90;;;;;;5030999;28;20546;-84
2023/07/28 02:09:42;;;;;;;3.65;2.53;;;11.60;99.90;;;;;;5014424;28;20044;-84
2023/07/28 02:12:08;;;;;;;5.57;3.05;;;11.50;99.90;;;;;;4995385;28;20383;-84
2023/07/28 02:14:33;;;;;;;5.80;3.17;;;11.40;99.90;;;;;;4995026;28;20033;-84
2023/07/28 02:16:59;;;;;;;6.47;3.00;;;11.40;99.90;;;;;;5013705;28;20395;-84
2023/07/28 02:19:25;;;;;;;4.82;2.85;;;11.40;99.90;;;;;;5028398;28;20056;-84
2023/07/28 02:21:51;;;;;;;4.82;3.03;;;11.40;99.90;;;;;;5001740;28;20053;-84
2023/07/28 02:24:16;;;;;;;4.35;2.58;;;11.40;99.90;;;;;;5020889;28;20033;-85
2023/07/28 02:26:42;;;;;;;4.88;2.10;;;11.40;99.90;;;;;;4995150;28;20487;-84
2023/07/28 02:29:08;;;;;;;4.05;2.50;;;11.40;99.90;;;;;;5000235;28;20156;-84
2023/07/28 02:31:33;;;;;;;3.38;2.20;;;11.40;99.90;;;;;;5028749;28;20037;-84
2023/07/28 02:33:59;;;;;;;3.42;2.30;;;11.30;99.90;;;;;;5013672;28;20435;-85
2023/07/28 02:36:25;;;;;;;3.75;2.30;;;11.30;99.90;;;;;;5020447;28;20696;-85
2023/07/28 02:38:51;;;;;;;4.40;2.42;;;11.20;99.90;;;;;;4999748;28;20026;-84
2023/07/28 02:41:16;;;;;;;3.75;2.55;;;11.20;99.90;;;;;;5014866;28;20513;-84
2023/07/28 02:43:42;;;;;;;4.07;2.72;;;11.10;99.90;;;;;;5027074;28;20055;-85
2023/07/28 02:46:08;;;;;;;4.15;2.92;;;11.20;99.90;;;;;;5032442;28;20566;-85
2023/07/28 02:48:33;;;;;;;4.30;2.80;;;11.10;99.90;;;;;;5006999;28;20530;-84
2023/07/28 02:50:59;;;;;;;4.05;2.90;;;11.10;99.90;;;;;;5008891;28;20037;-85
2023/07/28 02:53:24;;;;;;;4.82;3.00;;;11.10;99.90;;;;;;5005221;28;20052;-84
2023/07/28 02:55:51;;;;;;;4.00;2.70;;;11.10;99.90;;;;;;5022038;28;20041;-84
2023/07/28 02:58:17;;;;;;;4.18;2.70;;;11.10;99.90;;;;;;4991394;28;20040;-85
2023/07/28 03:00:44;;;;;;;4.28;2.55;;;11.10;99.90;;;;;;5010305;28;20034;-84
2023/07/28 03:03:12;;;;;;;3.83;2.30;;;11.10;99.90;;;;;;5022562;28;20025;-84
2023/07/28 03:05:39;;;;;;;4.00;2.47;;;11.10;99.90;;;;;;5030856;28;20032;-84
2023/07/28 03:08:04;;;;;;;4.10;2.35;;;11.00;99.90;;;;;;5028893;28;20032;-85
2023/07/28 03:10:30;;;;;;;4.80;2.67;;;11.00;99.90;;;;;;4995953;28;20025;-84
2023/07/28 03:12:56;;;;;;;4.35;2.22;;;11.00;99.90;;;;;;5028822;28;20034;-84
2023/07/28 03:15:22;;;;;;;3.33;2.10;;;11.00;99.90;;;;;;5030974;28;20582;-84
2023/07/28 03:17:49;;;;;;;2.90;2.00;;;10.90;99.90;;;;;;5030257;28;20458;-84
2023/07/28 03:20:15;;;;;;;4.40;2.10;;;10.90;99.90;;;;;;5029621;28;20022;-84
2023/07/28 03:22:40;;;;;;;6.50;2.15;;;10.90;99.90;;;;;;4997147;28;20076;-85
2023/07/28 03:25:06;;;;;;;5.95;2.20;;;10.90;99.90;;;;;;4995509;28;20029;-85
2023/07/28 03:27:32;;;;;;;3.55;2.50;;;10.90;99.90;;;;;;5023659;28;20029;-84
2023/07/28 03:29:58;;;;;;;2.83;1.75;;;10.90;99.90;;;;;;5020617;28;20379;-84
2023/07/28 03:32:23;;;;;;;3.40;2.00;;;10.80;99.90;;;;;;5010844;28;20080;-85
2023/07/28 03:34:49;;;;;;;3.20;2.13;;;10.90;99.90;;;;;;5009044;28;20116;-85
2023/07/28 03:37:15;;;;;;;4.05;2.20;;;10.90;99.90;;;;;;5026425;28;20057;-85
2023/07/28 03:39:40;;;;;;;3.45;2.03;;;10.80;99.90;;;;;;5014640;28;20080;-84
2023/07/28 03:42:07;;;;;;;4.18;2.30;;;10.80;99.90;;;;;;5031986;28;20025;-85
2023/07/28 03:44:33;;;;;;;4.07;2.13;;;10.80;99.90;;;;;;5019568;28;20052;-84
2023/07/28 03:46:59;;;;;;;4.50;2.10;;;10.80;99.90;;;;;;5013186;28;20391;-84
2023/07/28 03:49:25;;;;;;;4.13;2.00;;;10.80;99.90;;;;;;5001182;28;20129;-84
2023/07/28 03:51:50;;;;;;;3.88;2.20;;;10.70;99.90;;;;;;5001978;28;20037;-84
2023/07/28 03:54:16;;;;;;;2.67;1.73;;;10.80;99.90;;;;;;5000204;28;20476;-85
2023/07/28 03:56:42;;;;;;;4.47;2.00;;;10.70;99.90;;;;;;5003806;28;20072;-84
2023/07/28 03:59:10;;;;;;;4.55;2.00;;;10.70;99.90;;;;;;5018568;28;20041;-84
2023/07/28 04:01:36;;;;;;;5.63;2.53;;;10.70;99.90;;;;;;5001470;28;20033;-84
2023/07/28 04:04:03;;;;;;;4.05;2.35;;;10.70;99.90;;;;;;4999953;28;20038;-84
2023/07/28 04:06:46;;;;;;;3.30;2.13;;;10.60;99.90;;;;;;5018268;28;20029;-82
2023/07/28 04:09:14;;;;;;;6.13;2.28;;;10.70;99.90;;;;;;5035128;28;20071;-83
2023/07/28 04:11:40;;;;;;;3.95;2.15;;;10.60;99.90;;;;;;5018975;28;20037;-83
2023/07/28 04:14:06;;;;;;;4.25;2.55;;;10.70;99.90;;;;;;5024007;28;20079;-83
2023/07/28 04:16:32;;;;;;;6.90;2.30;;;10.70;99.90;;;;;;5034111;28;20021;-83
2023/07/28 04:18:58;;;;;;;4.50;2.47;;;10.70;99.90;;;;;;5030943;28;20029;-83
2023/07/28 04:21:24;;;;;;;3.80;2.10;;;10.70;99.90;;;;;;4999352;28;20116;-83
2023/07/28 04:23:50;;;;;;;5.22;2.53;;;10.70;99.90;;;;;;5016653;28;20037;-83
2023/07/28 04:26:17;;;;;;;3.50;2.08;;;10.70;99.90;;;;;;5016755;28;20034;-83
2023/07/28 04:28:42;;;;;;;5.65;2.42;;;10.80;99.90;;;;;;5029660;28;20026;-83
2023/07/28 04:31:08;;;;;;;4.88;2.75;;;10.80;99.90;;;;;;5035315;28;20398;-83
2023/07/28 04:33:34;;;;;;;4.07;2.30;;;10.80;99.90;;;;;;5036424;28;20029;-83
2023/07/28 04:36:02;;;;;;;5.53;2.88;;;10.90;99.90;;;;;;5035158;28;20026;-83
2023/07/28 04:38:28;;;;;;;3.72;2.15;;;10.90;99.90;;;;;;5035197;28;20573;-83
2023/07/28 04:40:54;;;;;;;4.18;2.45;;;10.90;99.90;;;;;;5035164;28;20061;-83
2023/07/28 04:43:19;;;;;;;4.68;2.40;;;10.90;99.90;;;;;;5034864;28;20033;-83
2023/07/28 04:45:45;;;;;;;3.58;2.20;;;10.90;99.90;;;;;;5032939;28;20029;-83
2023/07/28 04:48:11;;;;;;;3.80;2.00;;;11.00;99.90;;;;;;5034219;28;20120;-83
2023/07/28 04:50:37;;;;;;;4.30;2.17;;;10.90;99.90;;;;;;5018358;28;20041;-82
2023/07/28 04:53:03;;;;;;;4.72;2.70;;;10.90;99.90;;;;;;5025580;28;20395;-82
2023/07/28 04:55:29;;;;;;;6.00;2.30;;;10.80;99.90;;;;;;5026454;28;20494;-83
2023/07/28 04:57:55;;;;;;;4.82;2.50;;;10.90;99.90;;;;;;5014685;28;20021;-83
2023/07/28 05:00:21;;;;;;;7.47;2.58;;;10.90;99.90;;;;;;5031899;28;20029;-82
2023/07/28 05:02:47;;;;;;;5.07;3.00;;;10.90;99.90;;;;;;5037912;28;20505;-82
2023/07/28 05:05:12;;;;;;;4.53;2.40;;;10.90;99.90;;;;;;5028619;28;20379;-82
2023/07/28 05:07:38;;;;;;;4.13;2.55;;;10.90;99.90;;;;;;5034269;28;20036;-81
2023/07/28 05:10:04;;;;;;;4.75;2.67;;;11.00;99.90;;;;;;5035980;28;20037;-81
2023/07/28 05:12:30;;;;;;;5.10;2.60;;;11.00;99.90;;;;;;5034438;28;20060;-81
2023/07/28 05:14:55;;;;;;;4.20;2.65;;;11.00;99.90;;;;;;5019850;28;20030;-83
2023/07/28 05:17:21;;;;;;;3.83;2.25;;;11.10;99.90;;;;;;5021193;28;20032;-82
2023/07/28 05:19:47;;;;;;;4.97;2.35;;;11.10;99.90;;;;;;5001153;28;20026;-82
2023/07/28 05:22:12;;;;;;;4.35;2.38;;;11.10;99.90;;;;;;5032510;28;20030;-82
2023/07/28 05:24:38;;;;;;;4.18;2.70;;;11.20;99.90;;;;;;5037933;28;20034;-82
2023/07/28 05:27:04;;;;;;;4.80;2.50;;;11.20;99.90;;;;;;5034447;28;20037;-81
2023/07/28 05:29:30;;;;;;;5.68;2.60;;;11.20;99.90;;;;;;4999744;28;20029;-81
2023/07/28 05:31:58;;;;;;;5.18;3.08;;;11.30;99.90;;;;;;5014354;28;20033;-82
2023/07/28 05:34:24;;;;;;;7.10;2.85;;;11.30;99.90;;;;;;5033439;28;20033;-81
2023/07/28 05:36:50;;;;;;;6.07;3.25;;;11.30;99.90;;;;;;5034012;28;20505;-81
2023/07/28 05:39:15;;;;;;;5.05;2.97;;;11.40;99.90;;;;;;5032224;28;20399;-82
2023/07/28 05:41:41;;;;;;;5.75;3.03;;;11.40;99.90;;;;;;5035371;28;20022;-82
2023/07/28 05:44:07;;;;;;;4.97;2.85;;;11.40;99.90;;;;;;5034157;28;20380;-82
2023/07/28 05:46:33;;;;;;;5.10;2.92;;;11.50;99.90;;;;;;5021833;28;20550;-82
2023/07/28 05:48:59;;;;;;;4.85;3.20;;;11.50;99.90;;;;;;5015269;28;20038;-81
2023/07/28 05:51:25;;;;;;;6.57;3.35;;;11.50;99.90;;;;;;5018804;28;20112;-82
2023/07/28 05:53:51;;;;;;;6.30;3.22;;;11.50;99.90;;;;;;5035850;28;20499;-82
2023/07/28 05:56:18;;;;;;;5.60;3.38;;;11.50;99.90;;;;;;5034274;28;20029;-81
2023/07/28 05:58:45;;;;;;;5.30;3.03;;;11.50;99.90;;;;;;5022030;28;20026;-82
2023/07/28 06:01:10;;;;;;;5.07;3.53;;;11.60;99.90;;;;;;5020723;28;20029;-82
2023/07/28 06:03:36;;;;;;;5.50;3.10;;;11.60;99.90;;;;;;5014924;28;20037;-82
2023/07/28 06:06:02;;;;;;;7.65;3.08;;;11.60;99.90;;;;;;5014573;28;20025;-82
2023/07/28 06:08:28;;;;;;;5.47;3.70;;;11.70;99.90;;;;;;5033364;28;20418;-81
2023/07/28 06:10:54;;;;;;;4.80;2.85;;;11.80;99.90;;;;;;5033762;28;20029;-82
2023/07/28 06:13:20;;;;;;;6.28;3.65;;;11.90;99.90;;;;;;5026528;28;20030;-82
2023/07/28 06:15:46;;;;;;;6.30;3.67;;;12.00;99.90;;;;;;5013837;28;20022;-81
2023/07/28 06:18:12;;;;;;;7.40;3.78;;;12.10;99.90;;;;;;5021867;28;20492;-82
2023/07/28 06:20:41;;;;;;;6.40;3.72;;;12.10;99.90;;;;;;5017710;28;20112;-81
2023/07/28 06:23:06;;;;;;;8.40;4.30;;;12.30;99.90;;;;;;5017526;28;20065;-81
2023/07/28 06:25:32;;;;;;;7.07;4.07;;;12.40;99.90;;;;;;5015253;28;20030;-81
2023/07/28 06:27:58;;;;;;;6.03;4.05;;;12.50;99.90;;;;;;5019686;28;20124;-81
2023/07/28 06:30:23;;;;;;;4.72;3.50;;;12.60;99.90;;;;;;5022295;28;20042;-81
2023/07/28 06:32:49;;;;;;;5.25;3.40;;;12.70;99.90;;;;;;5014952;28;20479;-81
2023/07/28 06:35:15;;;;;;;6.35;3.88;;;12.70;99.90;;;;;;5014371;28;20053;-81
2023/07/28 06:37:40;;;;;;;6.22;3.80;;;12.80;99.90;;;;;;5002949;28;20033;-81
2023/07/28 06:40:08;;;;;;;5.57;3.78;;;12.80;99.90;;;;;;5033841;28;20022;-81
2023/07/28 06:42:36;;;;;;;6.32;3.83;;;12.90;99.90;;;;;;5032456;28;20521;-81
2023/07/28 06:45:02;;;;;;;6.93;3.40;;;12.90;99.90;;;;;;5033031;28;20155;-81
2023/07/28 06:47:28;;;;;;;5.53;3.13;;;12.90;99.90;;;;;;5025288;28;20029;-81
2023/07/28 06:49:54;;;;;;;6.82;3.55;;;12.90;99.90;;;;;;5016592;28;20025;-82
2023/07/28 06:52:19;;;;;;;7.88;3.72;;;13.00;99.90;;;;;;5024825;28;20025;-81
2023/07/28 06:54:47;;;;;;;6.60;4.20;;;13.00;99.90;;;;;;5030723;28;20030;-81
2023/07/28 06:57:12;;;;;;;5.45;3.28;;;13.00;99.90;;;;;;5040377;28;20452;-81
2023/07/28 06:59:38;;;;;;;5.13;3.20;;;13.00;99.90;;;;;;5026586;28;20100;-82
2023/07/28 07:02:05;;;;;;;6.47;3.58;;;13.00;99.90;;;;;;5034025;28;20080;-82
2023/07/28 07:04:30;;;;;;;5.90;4.10;;;13.00;99.90;;;;;;5024759;28;20026;-82
2023/07/28 07:06:56;;;;;;;5.70;3.15;;;13.00;99.90;;;;;;5012723;28;20087;-81
2023/07/28 07:09:22;;;;;;;6.65;3.92;;;13.10;99.90;;;;;;5022116;28;20038;-82
2023/07/28 07:11:47;;;;;;;5.53;3.55;;;13.10;99.90;;;;;;5034173;28;20441;-82
2023/07/28 07:14:14;;;;;;;6.05;3.58;;;13.20;99.90;;;;;;5033687;28;20021;-81
2023/07/28 07:16:40;;;;;;;6.22;3.63;;;13.20;99.90;;;;;;5032927;28;20450;-82
2023/07/28 07:19:05;;;;;;;4.85;3.25;;;13.20;99.90;;;;;;5032488;28;20057;-82
2023/07/28 07:21:31;;;;;;;5.32;3.28;;;13.30;99.90;;;;;;5032576;28;20053;-82
2023/07/28 07:23:57;;;;;;;6.13;3.40;;;13.40;99.90;;;;;;5032499;28;20030;-81
2023/07/28 07:26:22;;;;;;;6.18;3.75;;;13.40;99.90;;;;;;5032681;28;20036;-83
2023/07/28 07:28:48;;;;;;;6.38;3.53;;;13.40;99.90;;;;;;5032058;28;20030;-82
2023/07/28 07:31:14;;;;;;;5.20;3.72;;;13.40;99.90;;;;;;5033811;28;20124;-81
2023/07/28 07:33:41;;;;;;;6.07;3.70;;;13.50;99.90;;;;;;5032262;28;20036;-81
2023/07/28 07:36:15;;;;;;;5.22;3.50;;;13.50;99.90;;;;;;5033758;28;20068;-82
2023/07/28 07:38:41;;;;;;;5.95;3.95;;;13.50;99.90;;;;;;5033837;28;20483;-82
2023/07/28 07:41:08;;;;;;;4.93;3.13;;;13.50;99.90;;;;;;5033778;28;20026;-82
2023/07/28 07:43:34;;;;;;;5.18;3.10;;;13.50;99.90;;;;;;5033669;28;20029;-82
2023/07/28 07:46:00;;;;;;;4.93;2.97;;;13.50;99.90;;;;;;5024599;28;20418;-82
2023/07/28 07:48:25;;;;;;;4.18;2.90;;;13.60;99.90;;;;;;5023909;28;20034;-82
2023/07/28 07:50:51;;;;;;;4.70;2.90;;;13.60;99.90;;;;;;5033728;28;20422;-81
2023/07/28 07:53:17;;;;;;;6.10;3.15;;;13.70;99.90;;;;;;5029862;28;20092;-82
2023/07/28 07:55:43;;;;;;;7.45;3.13;;;13.70;99.90;;;;;;5029081;28;20026;-82
2023/07/28 07:58:09;;;;;;;4.95;2.78;;;13.70;99.90;;;;;;5020856;28;20132;-82
2023/07/28 08:00:36;;;;;;;5.95;3.45;;;13.80;99.90;;;;;;5028265;28;20021;-82
2023/07/28 08:03:02;;;;;;;6.15;4.28;;;13.80;99.90;;;;;;5029697;28;20088;-82
2023/07/28 08:05:28;;;;;;;7.15;4.40;;;13.90;99.90;;;;;;5025479;28;20030;-82
2023/07/28 08:07:54;;;;;;;7.75;4.05;;;14.00;99.90;;;;;;5019820;28;20034;-82
2023/07/28 08:10:20;;;;;;;7.10;4.18;;;14.00;99.90;;;;;;5033331;28;20042;-82
2023/07/28 08:12:47;;;;;;;7.70;3.95;;;14.10;99.90;;;;;;5034413;28;20044;-82
2023/07/28 08:15:13;;;;;;;5.72;4.07;;;14.20;99.90;;;;;;5035792;28;20091;-82
2023/07/28 08:17:39;;;;;;;7.03;4.25;;;14.30;99.90;;;;;;5032728;28;20452;-82
2023/07/28 08:20:09;;;;;;;8.90;3.63;;;14.40;99.90;;;;;;5035167;28;20041;-82
2023/07/28 08:22:34;;;;;;;6.38;4.00;;;14.60;99.90;;;;;;5018727;28;20079;-82
2023/07/28 08:25:00;;;;;;;7.45;3.53;;;14.70;99.90;;;;;;5036197;28;20033;-82
2023/07/28 08:27:26;;;;;;;6.30;3.95;;;14.80;99.90;;;;;;5019014;28;20025;-81
2023/07/28 08:29:51;;;;;;;7.60;3.92;;;14.90;99.90;;;;;;5036546;28;20033;-82
2023/07/28 08:32:17;;;;;;;5.15;3.40;;;15.00;99.90;;;;;;5037091;28;20372;-82
2023/07/28 08:34:43;;;;;;;3.85;2.63;;;15.20;99.90;;;;;;5035516;28;20399;-82
2023/07/28 08:37:09;;;;;;;4.95;3.15;;;15.30;99.90;;;;;;5029659;28;20493;-82
2023/07/28 08:39:34;;;;;;;4.95;3.25;;;15.40;99.90;;;;;;5036906;28;20033;-82
2023/07/28 08:42:01;;;;;;;6.07;2.83;;;15.60;99.90;;;;;;5030355;28;20025;-82
2023/07/28 08:44:31;;;;;;;5.03;2.97;;;15.90;99.90;;;;;;5029561;28;20052;-82
2023/07/28 08:46:57;;;;;;;5.47;3.10;;;16.00;99.90;;;;;;5035972;28;20400;-82
2023/07/28 08:49:23;;;;;;;4.55;2.80;;;16.10;99.90;;;;;;5029205;28;20039;-82
2023/07/28 08:51:50;;;;;;;4.85;3.00;;;16.20;99.90;;;;;;5026052;28;20034;-82
2023/07/28 08:54:16;;;;;;;6.47;3.15;;;16.40;99.90;;;;;;5027365;28;20108;-82
2023/07/28 08:56:45;;;;;;;6.28;3.22;;;16.60;99.90;;;;;;5029847;28;20025;-83
2023/07/28 08:59:11;;;;;;;4.70;2.92;;;16.90;99.90;;;;;;5022339;28;20065;-82
2023/07/28 09:01:40;;;;;;;4.65;2.80;;;17.00;99.90;;;;;;5021423;28;20372;-82
2023/07/28 09:04:10;;;;;;;5.13;3.42;;;17.20;99.90;;;;;;5025340;28;20383;-82
2023/07/28 09:06:36;;;;;;;4.25;2.90;;;17.40;99.90;;;;;;5015687;28;20026;-82
2023/07/28 09:09:05;;;;;;;5.15;2.85;;;17.50;99.90;;;;;;5024405;28;20488;-83
2023/07/28 09:11:31;;;;;;;5.18;2.70;;;17.60;99.90;;;;;;5036737;28;20025;-82
2023/07/28 09:14:00;;;;;;;4.72;2.83;;;17.70;99.90;;;;;;5031789;28;20033;-81
2023/07/28 09:16:26;;;;;;;6.40;2.97;;;17.90;99.90;;;;;;5017194;28;20033;-83
2023/07/28 09:19:08;;;;;;;5.80;3.10;;;18.00;99.90;;;;;;5015489;28;20030;-82
2023/07/28 09:21:33;;;;;;;6.32;2.97;;;18.20;99.90;;;;;;5015693;28;20631;-83
2023/07/28 09:24:06;;;;;;;5.43;3.33;;;18.30;99.90;;;;;;5014030;28;20120;-83
2023/07/28 09:26:46;;;;;;;5.18;3.30;;;18.40;99.90;;;;;;5014251;28;20029;-82
2023/07/28 09:29:22;;;;;;;5.03;2.53;;;18.60;99.90;;;;;;5033917;28;20033;-82
2023/07/28 09:31:49;;;;;;;4.00;2.80;;;18.70;99.90;;;;;;5036650;28;20485;-83
2023/07/28 09:34:28;;;;;;;4.57;2.50;;;18.90;99.90;;;;;;5037112;28;20033;-83
2023/07/28 09:36:58;;;;;;;4.70;2.83;;;19.00;99.90;;;;;;5037226;28;20101;-83
2023/07/28 09:39:25;;;;;;;6.90;2.83;;;19.10;99.90;;;;;;5036586;28;20542;-82
2023/07/28 09:41:51;;;;;;;4.93;2.60;;;19.30;99.90;;;;;;5037619;28;20467;-82
2023/07/28 09:44:17;;;;;;;5.53;2.70;;;19.40;99.90;;;;;;5028015;28;20041;-82
2023/07/28 09:46:51;;;;;;;4.90;2.72;;;19.60;99.90;;;;;;5025536;28;20562;-83
2023/07/28 09:49:35;;;;;;;7.60;2.70;;;19.80;99.90;;;;;;5025445;28;20460;-83
2023/07/28 09:52:10;;;;;;;4.45;2.67;;;19.90;99.90;;;;;;5028292;28;20022;-83
2023/07/28 09:54:41;;;;;;;4.25;2.50;;;20.20;99.90;;;;;;5016172;28;20025;-82
2023/07/28 09:57:18;;;;;;;4.63;2.63;;;20.30;99.90;;;;;;5016271;28;20030;-82
2023/07/28 09:59:47;;;;;;;3.67;2.38;;;20.50;99.90;;;;;;5035624;28;20029;-83
2023/07/28 10:02:13;;;;;;;4.60;2.55;;;20.70;99.90;;;;;;5036356;28;20105;-82
2023/07/28 10:04:42;;;;;;;5.82;2.83;;;20.90;99.90;;;;;;5027905;28;20057;-81
2023/07/28 10:07:08;;;;;;;5.07;2.90;;;21.10;99.90;;;;;;5021702;28;20034;-82
2023/07/28 10:09:34;;;;;;;4.93;2.53;;;21.20;99.90;;;;;;5030378;28;20438;-81
2023/07/28 10:12:03;;;;;;;5.28;2.20;;;21.40;99.90;;;;;;5014286;28;20032;-81
2023/07/28 10:14:39;;;;;;;2.90;1.95;;;21.70;99.90;;;;;;5029280;28;20473;-82
2023/07/28 10:17:06;;;;;;;4.93;2.05;;;21.70;99.90;;;;;;5015990;28;20151;-81
2023/07/28 10:19:36;;;;;;;4.53;2.90;;;21.70;99.90;;;;;;5023318;28;20045;-81
2023/07/28 10:22:07;;;;;;;4.60;2.30;;;21.70;99.90;;;;;;5020591;28;20029;-82
2023/07/28 10:24:56;;;;;;;3.25;2.35;;;21.90;99.90;;;;;;5013707;28;20034;-82
2023/07/28 10:27:39;;;;;;;3.42;1.90;;;22.10;99.90;;;;;;5016744;28;20105;-81
2023/07/28 10:30:11;;;;;;;4.65;1.95;;;22.30;99.90;;;;;;5033714;28;20057;-81
2023/07/28 10:32:39;;;;;;;4.22;2.40;;;22.40;99.90;;;;;;5034270;28;20095;-82
2023/07/28 10:35:14;;;;;;;4.60;2.10;;;22.50;99.90;;;;;;5034268;28;20028;-81
2023/07/28 10:37:47;;;;;;;3.13;2.08;;;22.70;99.90;;;;;;5027869;28;20076;-82
2023/07/28 10:40:36;;;;;;;2.65;1.70;;;22.80;99.90;;;;;;5023913;28;20495;-82
2023/07/28 10:43:04;;;;;;;2.85;2.00;;;23.00;99.50;;;;;;5022332;28;20419;-83
2023/07/28 10:45:31;;;;;;;2.60;1.77;;;23.20;99.50;;;;;;5023356;28;20026;-82
2023/07/28 10:48:00;;;;;;;3.10;2.00;;;23.40;99.90;;;;;;5030266;28;20037;-82
2023/07/28 10:50:30;;;;;;;4.45;2.08;;;23.60;97.80;;;;;;5013421;28;20030;-82
2023/07/28 10:52:56;;;;;;;3.60;1.77;;;23.80;98.20;;;;;;5015296;28;20044;-82
2023/07/28 10:55:24;;;;;;;6.63;2.28;;;23.90;97.90;;;;;;5015081;28;20456;-81
2023/07/28 10:57:51;;;;;;;3.35;2.00;;;24.10;97.60;;;;;;5020969;28;20094;-82
2023/07/28 11:00:19;;;;;;;2.65;1.70;;;24.20;97.10;;;;;;5033873;28;20025;-82
2023/07/28 11:02:47;;;;;;;3.13;1.92;;;24.40;93.60;;;;;;5034008;28;20032;-82
2023/07/28 11:05:39;;;;;;;3.40;1.63;;;24.50;95.00;;;;;;5033879;28;20033;-82
2023/07/28 11:08:07;;;;;;;3.30;2.08;;;24.70;94.80;;;;;;5032000;28;20439;-82
2023/07/28 11:10:35;;;;;;;2.40;1.52;;;24.80;94.10;;;;;;5034581;28;20480;-82
2023/07/28 11:13:06;;;;;;;2.80;1.75;;;24.80;93.40;;;;;;5029474;28;20110;-81
2023/07/28 11:15:33;;;;;;;4.53;1.77;;;24.90;92.20;;;;;;5026502;28;20014;-82
2023/07/28 11:17:58;;;;;;;4.72;1.70;;;24.90;91.80;;;;;;5021864;28;20034;-82
2023/07/28 11:20:28;;;;;;;2.67;1.67;;;25.00;92.40;;;;;;5023129;28;20014;-82
2023/07/28 11:23:05;;;;;;;2.83;1.70;;;25.20;91.80;;;;;;5030504;28;20026;-82
2023/07/28 11:25:33;;;;;;;4.80;1.90;;;25.20;90.50;;;;;;5021233;28;20030;-83
2023/07/28 11:28:03;;;;;;;3.63;1.90;;;25.30;91.10;;;;;;5023942;28;20534;-82
2023/07/28 11:30:28;;;;;;;3.00;2.03;;;25.40;90.80;;;;;;5033240;28;20609;-81
2023/07/28 11:32:54;;;;;;;3.05;2.05;;;25.60;90.00;;;;;;5032153;28;20051;-82
2023/07/28 11:35:22;;;;;;;3.40;2.10;;;25.70;90.80;;;;;;5032654;28;20428;-82
2023/07/28 11:37:52;;;;;;;3.42;2.03;;;25.80;88.90;;;;;;5033628;28;20018;-82
2023/07/28 11:40:20;;;;;;;3.55;2.17;;;25.90;88.60;;;;;;5034504;28;20401;-82
2023/07/28 11:42:49;;;;;;;4.65;2.10;;;26.10;90.20;;;;;;5033160;28;20032;-81
2023/07/28 11:45:18;;;;;;;3.90;2.00;;;26.40;90.40;;;;;;5020148;28;20105;-81
2023/07/28 11:48:02;;;;;;;3.55;2.20;;;26.60;89.30;;;;;;5025052;28;20113;-81
2023/07/28 11:50:39;;;;;;;3.22;2.13;;;26.70;88.50;;;;;;5032420;28;20390;-82
2023/07/28 11:53:08;;;;;;;3.05;2.10;;;26.70;89.60;;;;;;5035955;28;20029;-82
2023/07/28 11:55:40;;;;;;;3.63;2.10;;;26.70;88.80;;;;;;5038548;28;20036;-82
2023/07/28 11:58:07;;;;;;;3.80;2.30;;;26.60;88.60;;;;;;5037754;28;20080;-82
2023/07/28 12:00:37;;;;;;;4.22;2.13;;;26.50;89.80;;;;;;5037241;28;20089;-83
2023/07/28 12:03:12;;;;;;;3.40;1.98;;;26.30;88.50;;;;;;5037594;28;20026;-81
2023/07/28 12:05:39;;;;;;;6.85;3.20;;;26.10;88.40;;;;;;5037643;28;20037;-81
2023/07/28 12:08:07;;;;;;;7.68;3.72;;;25.90;89.30;;;;;;5036341;28;20394;-81
2023/07/28 12:10:34;;;;;;;5.00;2.85;;;25.80;90.20;;;;;;5036056;28;20502;-81
2023/07/28 12:13:07;;;;;;;20.52;7.45;;;25.70;89.10;;;;;;5037976;28;20033;-81
2023/07/28 12:15:34;;;;;;;9.15;3.30;;;25.60;89.70;;;;;;5034153;28;20022;-81
2023/07/28 12:18:16;;;;;;;4.60;2.20;;;25.40;89.40;;;;;;5042933;28;20112;-82
2023/07/28 12:20:47;;;;;;;3.75;2.15;;;25.30;90.20;;;;;;5027222;28;20025;-82
2023/07/28 12:23:14;;;;;;;2.67;1.90;;;25.10;90.30;;;;;;5026330;28;20074;-79
2023/07/28 12:25:40;;;;;;;7.30;2.55;;;24.90;91.20;;;;;;5019563;28;20025;-79
2023/07/28 12:28:06;;;;;;;4.68;2.40;;;24.90;91.40;;;;;;5029119;28;20036;-79
2023/07/28 12:30:32;;;;;;;3.58;2.10;;;24.80;91.30;;;;;;5030800;28;20128;-79
2023/07/28 12:32:58;;;;;;;4.18;2.55;;;24.70;91.60;;;;;;5032077;28;20031;-79
2023/07/28 12:35:26;;;;;;;6.63;2.65;;;24.60;91.90;;;;;;5016908;28;20388;-79
2023/07/28 12:37:52;;;;;;;3.88;2.70;;;24.40;92.50;;;;;;5016886;28;20172;-79
2023/07/28 12:40:21;;;;;;;4.03;2.28;;;24.40;93.00;;;;;;5016876;28;20495;-80
2023/07/28 12:42:47;;;;;;;4.47;2.30;;;24.30;93.10;;;;;;5016836;28;20021;-80
2023/07/28 12:45:15;;;;;;;3.38;2.42;;;24.30;92.40;;;;;;5019073;28;20026;-79
2023/07/28 12:47:41;;;;;;;3.60;2.22;;;24.20;93.10;;;;;;5028508;28;20034;-79
2023/07/28 12:50:07;;;;;;;4.80;2.40;;;24.10;93.30;;;;;;5025599;28;20034;-79